createdAt,value
2018-05-06T00:02:14.984Z,99.90
2018-05-06T00:04:43.101Z,99.90
2018-05-06T00:07:11.241Z,99.90
2018-05-06T00:09:39.367Z,99.90
2018-05-06T00:12:08.280Z,99.90
2018-05-06T00:14:36.417Z,99.90
2018-05-06T00:17:04.561Z,99.90
2018-05-06T00:19:32.679Z,99.90
2018-05-06T00:22:01.569Z,99.90
2018-05-06T00:24:30.469Z,99.90
2018-05-06T00:26:59.350Z,99.90
2018-05-06T00:29:28.247Z,99.90
2018-05-06T00:31:57.136Z,99.90
2018-05-06T00:34:25.276Z,99.90
2018-05-06T00:36:53.387Z,99.90
2018-05-06T00:39:21.537Z,99.90
2018-05-06T00:41:50.433Z,99.90
2018-05-06T00:44:19.339Z,99.90
2018-05-06T00:46:47.466Z,99.90
2018-05-06T00:49:15.600Z,99.90
2018-05-06T00:51:43.712Z,99.90
2018-05-06T00:54:23.627Z,99.90
2018-05-06T00:56:51.752Z,99.90
2018-05-06T00:59:20.652Z,99.90
2018-05-06T01:01:49.533Z,99.90
2018-05-06T01:04:18.433Z,99.90
2018-05-06T01:06:46.564Z,99.90
2018-05-06T01:09:14.740Z,99.90
2018-05-06T01:11:42.825Z,99.90
2018-05-06T01:14:11.404Z,99.90
2018-05-06T01:16:39.803Z,99.90
2018-05-06T01:19:08.704Z,99.90
2018-05-06T01:21:36.828Z,99.90
2018-05-06T01:24:04.977Z,99.90
2018-05-06T01:26:33.095Z,99.90
2018-05-06T01:29:01.996Z,99.90
2018-05-06T01:31:30.881Z,99.90
2018-05-06T01:33:59.776Z,99.90
2018-05-06T01:36:27.896Z,99.90
2018-05-06T01:38:56.017Z,99.90
2018-05-06T01:41:24.923Z,99.90
2018-05-06T01:43:53.048Z,99.90
2018-05-06T01:46:21.189Z,99.90
2018-05-06T01:48:49.314Z,99.90
2018-05-06T01:51:18.205Z,99.90
2018-05-06T01:53:47.092Z,99.90
2018-05-06T01:56:16.010Z,99.90
2018-05-06T01:58:44.121Z,99.90
2018-05-06T02:01:12.287Z,99.90
2018-05-06T02:03:40.397Z,99.90
2018-05-06T02:06:09.298Z,99.90
2018-05-06T02:08:37.420Z,99.90
2018-05-06T02:11:05.551Z,99.90
2018-05-06T02:13:33.675Z,99.90
2018-05-06T02:16:01.808Z,99.90
2018-05-06T02:18:29.929Z,99.90
2018-05-06T02:20:58.116Z,99.90
2018-05-06T02:23:26.999Z,99.90
2018-05-06T02:25:55.913Z,99.90
2018-05-06T02:28:24.033Z,99.90
2018-05-06T02:30:52.195Z,99.90
2018-05-06T02:33:20.312Z,99.90
2018-05-06T02:35:49.228Z,99.90
2018-05-06T02:38:17.336Z,99.90
2018-05-06T02:40:45.476Z,99.90
2018-05-06T02:43:13.604Z,99.90
2018-05-06T02:45:42.515Z,99.90
2018-05-06T02:48:10.639Z,99.90
2018-05-06T02:50:38.781Z,99.90
2018-05-06T02:53:06.913Z,99.90
2018-05-06T02:55:35.809Z,99.90
2018-05-06T02:58:03.941Z,99.90
2018-05-06T03:00:32.223Z,99.90
2018-05-06T03:03:01.045Z,99.90
2018-05-06T03:05:29.928Z,99.90
2018-05-06T03:07:58.840Z,99.90
2018-05-06T03:10:26.961Z,99.90
2018-05-06T03:12:55.108Z,99.90
2018-05-06T03:15:23.235Z,99.90
2018-05-06T03:17:51.376Z,99.90
2018-05-06T03:20:19.492Z,99.90
2018-05-06T03:22:47.628Z,99.90
2018-05-06T03:25:15.792Z,99.90
2018-05-06T03:27:43.937Z,99.90
2018-05-06T03:30:12.056Z,99.90
2018-05-06T03:32:40.964Z,99.90
2018-05-06T03:35:09.089Z,99.90
2018-05-06T03:37:37.232Z,99.90
2018-05-06T03:40:05.348Z,99.90
2018-05-06T03:42:34.261Z,99.90
2018-05-06T03:45:02.389Z,99.90
2018-05-06T03:47:30.545Z,99.90
2018-05-06T03:49:58.664Z,99.90
2018-05-06T03:52:27.574Z,99.90
2018-05-06T03:54:55.696Z,99.90
2018-05-06T03:57:35.652Z,99.90
2018-05-06T04:00:15.452Z,99.90
2018-05-06T04:02:44.425Z,99.90
2018-05-06T04:05:12.570Z,99.90
2018-05-06T04:07:40.701Z,99.90
2018-05-06T04:10:08.823Z,99.90
2018-05-06T04:12:37.733Z,99.90
2018-05-06T04:15:05.868Z,99.90
2018-05-06T04:17:34.027Z,99.90
2018-05-06T04:20:02.144Z,99.90
2018-05-06T04:22:30.272Z,99.90
2018-05-06T04:24:58.425Z,99.90
2018-05-06T04:27:26.546Z,99.90
2018-05-06T04:29:55.456Z,99.90
2018-05-06T04:32:23.592Z,99.90
2018-05-06T04:34:51.745Z,99.90
2018-05-06T04:37:21.202Z,99.90
2018-05-06T04:39:49.345Z,99.90
2018-05-06T04:42:18.229Z,99.90
2018-05-06T04:44:46.377Z,99.90
2018-05-06T04:47:14.497Z,99.90
2018-05-06T04:49:42.634Z,99.90
2018-05-06T04:52:10.769Z,99.90
2018-05-06T04:54:38.902Z,99.90
2018-05-06T04:57:07.848Z,99.90
2018-05-06T04:59:35.989Z,99.90
2018-05-06T05:02:04.108Z,99.90
2018-05-06T05:04:32.240Z,99.90
2018-05-06T05:07:00.358Z,99.90
2018-05-06T05:09:28.540Z,99.90
2018-05-06T05:11:56.630Z,99.90
2018-05-06T05:14:25.536Z,99.90
2018-05-06T05:16:53.662Z,99.90
2018-05-06T05:19:21.792Z,99.90
2018-05-06T05:21:49.920Z,99.90
2018-05-06T05:24:18.834Z,99.90
2018-05-06T05:26:46.945Z,99.90
2018-05-06T05:29:15.065Z,99.90
2018-05-06T05:31:43.207Z,99.90
2018-05-06T05:34:11.332Z,99.90
2018-05-06T05:36:40.148Z,99.90
2018-05-06T05:39:08.267Z,99.90
2018-05-06T05:41:36.409Z,99.90
2018-05-06T05:44:04.540Z,99.90
2018-05-06T05:46:32.677Z,99.90
2018-05-06T05:49:00.815Z,99.90
2018-05-06T05:51:28.956Z,99.90
2018-05-06T05:53:57.088Z,99.90
2018-05-06T05:56:25.995Z,99.90
2018-05-06T05:58:54.112Z,99.90
2018-05-06T06:01:22.333Z,99.90
2018-05-06T06:03:50.388Z,99.90
2018-05-06T06:06:19.293Z,98.90
2018-05-06T06:08:47.425Z,98.90
2018-05-06T06:11:15.576Z,98.00
2018-05-06T06:13:43.705Z,96.20
2018-05-06T06:16:11.845Z,93.00
2018-05-06T06:18:39.972Z,94.30
2018-05-06T06:21:08.105Z,93.20
2018-05-06T06:23:36.996Z,92.40
2018-05-06T06:26:05.900Z,90.80
2018-05-06T06:28:34.028Z,90.80
2018-05-06T06:31:02.270Z,89.80
2018-05-06T06:33:30.409Z,89.20
2018-05-06T06:35:58.553Z,89.40
2018-05-06T06:38:26.731Z,86.80
2018-05-06T06:40:54.828Z,83.00
2018-05-06T06:43:22.951Z,78.20
2018-05-06T06:45:51.101Z,79.30
2018-05-06T06:48:19.249Z,78.00
2018-05-06T06:50:47.379Z,77.90
2018-05-06T06:53:15.520Z,76.40
2018-05-06T06:55:43.687Z,76.30
2018-05-06T06:58:11.827Z,74.50
2018-05-06T07:00:40.776Z,71.00
2018-05-06T07:03:08.923Z,71.00
2018-05-06T07:05:37.051Z,71.30
2018-05-06T07:08:05.196Z,71.40
2018-05-06T07:10:33.322Z,71.40
2018-05-06T07:13:01.462Z,69.50
2018-05-06T07:15:30.365Z,69.20
2018-05-06T07:17:59.269Z,70.30
2018-05-06T07:20:27.396Z,70.30
2018-05-06T07:22:55.538Z,68.70
2018-05-06T07:25:23.656Z,66.00
2018-05-06T07:27:52.562Z,64.80
2018-05-06T07:30:20.846Z,64.80
2018-05-06T07:32:49.004Z,65.20
2018-05-06T07:35:17.153Z,63.60
2018-05-06T07:37:46.056Z,65.60
2018-05-06T07:40:14.972Z,63.80
2018-05-06T07:42:43.163Z,63.80
2018-05-06T07:45:12.040Z,62.10
2018-05-06T07:47:40.172Z,62.10
2018-05-06T07:50:09.073Z,59.70
2018-05-06T07:52:38.349Z,59.60
2018-05-06T07:55:06.473Z,59.80
2018-05-06T07:57:34.593Z,58.70
2018-05-06T08:00:03.505Z,56.80
2018-05-06T08:02:31.641Z,56.80
2018-05-06T08:04:59.771Z,57.00
2018-05-06T08:07:28.266Z,56.60
2018-05-06T08:09:56.401Z,56.60
2018-05-06T08:12:24.527Z,55.30
2018-05-06T08:14:52.664Z,56.50
2018-05-06T08:17:20.802Z,55.20
2018-05-06T08:19:48.959Z,53.80
2018-05-06T08:22:17.854Z,52.80
2018-05-06T08:24:46.732Z,51.00
2018-05-06T08:27:14.976Z,50.80
2018-05-06T08:29:43.091Z,52.40
2018-05-06T08:32:12.006Z,51.40
2018-05-06T08:34:40.119Z,51.40
2018-05-06T08:37:08.266Z,50.20
2018-05-06T08:39:36.389Z,50.80
2018-05-06T08:42:05.390Z,50.60
2018-05-06T08:44:35.710Z,50.60
2018-05-06T08:47:03.845Z,50.40
2018-05-06T08:49:31.961Z,49.20
2018-05-06T08:52:00.101Z,48.30
2018-05-06T08:54:28.218Z,49.00
2018-05-06T08:56:56.364Z,49.30
2018-05-06T08:59:26.225Z,47.50
2018-05-06T09:01:54.330Z,47.50
2018-05-06T09:04:22.469Z,45.70
2018-05-06T09:06:50.625Z,46.60
2018-05-06T09:09:18.760Z,46.70
2018-05-06T09:11:47.669Z,45.50
2018-05-06T09:14:15.787Z,45.50
2018-05-06T09:16:43.929Z,45.50
2018-05-06T09:19:12.053Z,45.30
2018-05-06T09:21:40.229Z,45.90
2018-05-06T09:24:08.351Z,45.00
2018-05-06T09:26:36.489Z,44.40
2018-05-06T09:29:05.376Z,43.70
2018-05-06T09:31:34.816Z,42.90
2018-05-06T09:34:02.932Z,42.90
2018-05-06T09:36:31.073Z,44.70
2018-05-06T09:38:59.192Z,44.30
2018-05-06T09:41:28.174Z,43.10
2018-05-06T09:43:57.061Z,42.80
2018-05-06T09:46:25.945Z,43.70
2018-05-06T09:48:54.097Z,43.80
2018-05-06T09:51:22.221Z,41.80
2018-05-06T09:53:50.391Z,41.70
2018-05-06T09:56:18.479Z,41.80
2018-05-06T09:58:47.585Z,41.10
2018-05-06T10:01:15.708Z,41.60
2018-05-06T10:03:44.619Z,41.20
2018-05-06T10:06:12.750Z,41.10
2018-05-06T10:08:40.890Z,41.40
2018-05-06T10:11:09.016Z,44.20
2018-05-06T10:13:37.921Z,41.00
2018-05-06T10:16:06.044Z,41.00
2018-05-06T10:18:34.182Z,41.20
2018-05-06T10:21:02.301Z,42.60
2018-05-06T10:23:30.447Z,42.40
2018-05-06T10:25:59.355Z,42.90
2018-05-06T10:28:27.869Z,42.90
2018-05-06T10:30:55.979Z,41.50
2018-05-06T10:33:24.136Z,42.70
2018-05-06T10:35:52.256Z,41.60
2018-05-06T10:38:20.470Z,41.70
2018-05-06T10:40:48.969Z,41.90
2018-05-06T10:43:17.098Z,41.30
2018-05-06T10:45:46.005Z,40.90
2018-05-06T10:48:15.115Z,40.90
2018-05-06T10:50:43.258Z,41.20
2018-05-06T10:53:12.148Z,40.80
2018-05-06T10:55:41.712Z,39.20
2018-05-06T10:58:09.842Z,39.10
2018-05-06T11:00:37.982Z,39.70
2018-05-06T11:03:06.109Z,38.60
2018-05-06T11:05:34.244Z,38.90
2018-05-06T11:08:02.364Z,38.20
2018-05-06T11:10:30.653Z,39.80
2018-05-06T11:12:58.770Z,38.60
2018-05-06T11:15:27.149Z,38.70
2018-05-06T11:17:55.358Z,39.40
2018-05-06T11:20:23.404Z,38.10
2018-05-06T11:22:51.543Z,37.90
2018-05-06T11:25:21.493Z,36.80
2018-05-06T11:27:49.605Z,36.60
2018-05-06T11:30:17.741Z,35.00
2018-05-06T11:32:45.874Z,36.10
2018-05-06T11:35:14.773Z,35.40
2018-05-06T11:37:43.312Z,35.40
2018-05-06T11:40:12.446Z,34.70
2018-05-06T11:42:41.324Z,33.10
2018-05-06T11:45:10.564Z,32.60
2018-05-06T11:47:41.464Z,32.50
2018-05-06T11:50:10.434Z,31.90
2018-05-06T11:52:38.564Z,31.80
2018-05-06T11:55:06.695Z,32.40
2018-05-06T11:57:34.828Z,32.10
2018-05-06T12:00:02.973Z,33.10
2018-05-06T12:02:31.236Z,32.70
2018-05-06T12:04:59.352Z,33.40
2018-05-06T12:07:27.492Z,33.70
2018-05-06T12:09:55.661Z,32.80
2018-05-06T12:12:24.514Z,33.40
2018-05-06T12:14:52.635Z,33.30
2018-05-06T12:17:20.826Z,31.70
2018-05-06T12:19:48.956Z,31.00
2018-05-06T12:22:17.093Z,31.60
2018-05-06T12:24:45.994Z,33.00
2018-05-06T12:27:14.183Z,33.00
2018-05-06T12:29:42.314Z,32.40
2018-05-06T12:32:10.460Z,31.80
2018-05-06T12:34:38.580Z,31.90
2018-05-06T12:37:06.785Z,33.00
2018-05-06T12:39:34.917Z,32.80
2018-05-06T12:42:03.052Z,32.30
2018-05-06T12:44:31.179Z,32.60
2018-05-06T12:46:59.317Z,32.50
2018-05-06T12:49:28.330Z,32.60
2018-05-06T12:51:57.107Z,32.30
2018-05-06T12:54:25.250Z,32.20
2018-05-06T12:56:53.382Z,32.80
2018-05-06T12:59:21.528Z,33.20
2018-05-06T13:01:49.772Z,33.30
2018-05-06T13:04:19.434Z,33.30
2018-05-06T13:06:47.577Z,33.30
2018-05-06T13:09:15.722Z,33.00
2018-05-06T13:11:43.846Z,32.80
2018-05-06T13:14:11.985Z,33.00
2018-05-06T13:16:40.861Z,34.20
2018-05-06T13:34:56.703Z,34.90
2018-05-06T13:37:24.830Z,35.90
2018-05-06T13:39:53.737Z,36.70
2018-05-06T13:42:22.013Z,36.50
2018-05-06T13:44:50.162Z,35.80
2018-05-06T13:47:18.284Z,36.50
2018-05-06T13:49:46.504Z,36.50
2018-05-06T13:52:14.550Z,35.40
2018-05-06T13:54:42.690Z,36.90
2018-05-06T13:57:10.820Z,37.00
2018-05-06T13:59:39.808Z,38.00
2018-05-06T14:02:08.052Z,38.00
2018-05-06T14:04:36.197Z,38.90
2018-05-06T14:07:04.324Z,38.50
2018-05-06T14:09:33.215Z,38.00
2018-05-06T14:12:02.124Z,38.30
2018-05-06T14:14:30.284Z,38.30
2018-05-06T14:16:59.185Z,38.50
2018-05-06T14:19:27.308Z,38.50
2018-05-06T14:21:55.441Z,39.20
2018-05-06T14:24:23.568Z,38.20
2018-05-06T14:26:52.469Z,39.50
2018-05-06T14:29:21.348Z,39.90
2018-05-06T14:31:50.253Z,39.20
2018-05-06T14:34:19.140Z,39.70
2018-05-06T14:36:47.310Z,39.70
2018-05-06T14:39:16.196Z,40.10
2018-05-06T14:41:45.096Z,40.40
2018-05-06T14:44:13.232Z,40.40
2018-05-06T14:46:53.044Z,39.70
2018-05-06T14:49:21.158Z,40.40
2018-05-06T14:51:49.915Z,40.60
2018-05-06T14:54:18.034Z,40.50
2018-05-06T14:56:47.293Z,40.50
2018-05-06T14:59:15.400Z,40.50
2018-05-06T15:01:44.321Z,40.40
2018-05-06T15:04:12.436Z,40.40
2018-05-06T15:06:40.572Z,41.50
2018-05-06T15:09:08.699Z,40.50
2018-05-06T15:11:37.602Z,41.60
2018-05-06T15:14:05.736Z,41.50
2018-05-06T15:16:34.471Z,40.40
2018-05-06T15:19:02.601Z,41.20
2018-05-06T15:21:31.496Z,40.50
2018-05-06T15:24:01.538Z,41.10
2018-05-06T15:26:30.407Z,40.10
2018-05-06T15:28:59.307Z,40.10
2018-05-06T15:31:30.929Z,40.10
2018-05-06T15:33:59.059Z,40.10
2018-05-06T15:36:27.181Z,40.30
2018-05-06T15:38:55.320Z,38.90
2018-05-06T15:41:23.444Z,39.80
2018-05-06T15:43:52.372Z,39.30
2018-05-06T15:46:20.492Z,39.30
2018-05-06T15:48:49.402Z,40.40
2018-05-06T15:51:17.534Z,40.40
2018-05-06T15:53:45.680Z,40.40
2018-05-06T15:56:13.805Z,40.10
2018-05-06T15:58:42.707Z,40.30
2018-05-06T16:01:10.832Z,40.30
2018-05-06T16:03:50.656Z,39.90
2018-05-06T16:06:19.548Z,39.80
2018-05-06T16:08:47.682Z,39.80
2018-05-06T16:11:15.829Z,39.90
2018-05-06T16:13:45.544Z,40.00
2018-05-06T16:16:13.676Z,39.90
2018-05-06T16:18:41.792Z,41.10
2018-05-06T16:21:10.687Z,40.30
2018-05-06T16:23:38.822Z,40.20
2018-05-06T16:26:06.960Z,40.60
2018-05-06T16:28:35.073Z,40.80
2018-05-06T16:31:03.208Z,40.30
2018-05-06T16:33:31.324Z,39.80
2018-05-06T16:36:00.230Z,40.30
2018-05-06T16:38:28.371Z,40.40
2018-05-06T16:40:56.512Z,41.40
2018-05-06T16:43:24.639Z,40.40
2018-05-06T16:45:54.120Z,40.60
2018-05-06T16:48:22.210Z,40.50
2018-05-06T16:50:51.114Z,40.40
2018-05-06T16:53:19.239Z,40.40
2018-05-06T16:55:47.390Z,41.00
2018-05-06T16:58:15.517Z,41.20
2018-05-06T17:00:44.396Z,41.80
2018-05-06T17:03:13.292Z,42.40
2018-05-06T17:05:42.179Z,42.70
2018-05-06T17:08:11.084Z,42.70
2018-05-06T17:10:39.209Z,42.80
2018-05-06T17:13:07.346Z,43.30
2018-05-06T17:15:35.460Z,43.30
2018-05-06T17:18:03.605Z,43.80
2018-05-06T17:20:31.751Z,43.80
2018-05-06T17:22:59.897Z,43.70
2018-05-06T17:25:28.806Z,43.90
2018-05-06T17:27:56.938Z,43.90
2018-05-06T17:30:25.074Z,44.30
2018-05-06T17:32:53.225Z,44.30
2018-05-06T17:35:21.357Z,44.40
2018-05-06T17:37:49.495Z,44.50
2018-05-06T17:40:17.631Z,44.70
2018-05-06T17:42:45.771Z,44.40
2018-05-06T17:45:13.889Z,44.50
2018-05-06T17:47:42.027Z,44.80
2018-05-06T17:50:10.994Z,45.60
2018-05-06T17:52:39.064Z,45.50
2018-05-06T17:55:07.182Z,45.70
2018-05-06T17:57:35.345Z,45.70
2018-05-06T18:00:03.797Z,45.20
2018-05-06T18:02:31.917Z,45.50
2018-05-06T18:05:00.048Z,45.60
2018-05-06T18:07:29.007Z,45.90
2018-05-06T18:09:57.852Z,45.90
2018-05-06T18:12:25.974Z,45.90
2018-05-06T18:14:54.112Z,46.10
2018-05-06T18:17:22.232Z,46.70
2018-05-06T18:19:50.400Z,46.60
2018-05-06T18:22:18.537Z,46.90
2018-05-06T18:24:46.674Z,47.00
2018-05-06T18:27:14.808Z,47.20
2018-05-06T18:29:42.928Z,47.30
2018-05-06T18:32:11.128Z,47.80
2018-05-06T18:34:39.979Z,47.80
2018-05-06T18:37:08.124Z,47.70
2018-05-06T18:39:36.256Z,47.80
2018-05-06T18:42:04.452Z,48.60
2018-05-06T18:44:32.590Z,48.00
2018-05-06T18:47:00.755Z,48.10
2018-05-06T18:49:29.620Z,48.60
2018-05-06T18:51:57.740Z,48.60
2018-05-06T18:54:25.889Z,48.50
2018-05-06T18:56:54.118Z,48.40
2018-05-06T18:59:22.271Z,48.80
2018-05-06T19:01:50.536Z,48.70
2018-05-06T19:04:18.705Z,48.80
2018-05-06T19:06:46.823Z,48.60
2018-05-06T19:09:15.754Z,48.80
2018-05-06T19:11:43.889Z,48.80
2018-05-06T19:14:12.795Z,48.90
2018-05-06T19:16:40.921Z,48.80
2018-05-06T19:19:09.071Z,48.80
2018-05-06T19:21:37.216Z,48.70
2018-05-06T19:24:05.519Z,49.00
2018-05-06T19:26:33.701Z,49.20
2018-05-06T19:29:01.844Z,49.60
2018-05-06T19:31:29.980Z,49.00
2018-05-06T19:33:58.112Z,48.80
2018-05-06T19:36:28.000Z,49.20
2018-05-06T19:38:56.142Z,49.10
2018-05-06T19:41:24.299Z,48.90
2018-05-06T19:43:53.188Z,48.70
2018-05-06T19:46:22.105Z,48.70
2018-05-06T19:48:50.366Z,48.60
2018-05-06T19:51:19.580Z,48.50
2018-05-06T19:53:48.525Z,48.80
2018-05-06T19:56:16.651Z,48.80
2018-05-06T19:58:44.777Z,48.90
2018-05-06T20:01:14.595Z,49.20
2018-05-06T20:03:43.603Z,49.10
2018-05-06T20:06:11.778Z,49.00
2018-05-06T20:08:39.904Z,49.00
2018-05-06T20:11:08.039Z,49.00
2018-05-06T20:13:36.217Z,49.00
2018-05-06T20:16:04.352Z,49.00
2018-05-06T20:18:32.488Z,49.20
2018-05-06T20:21:00.632Z,49.20
2018-05-06T20:23:31.020Z,49.80
2018-05-06T20:25:59.934Z,49.60
2018-05-06T20:28:28.060Z,49.60
2018-05-06T20:30:56.975Z,49.30
2018-05-06T20:33:25.125Z,49.20
2018-05-06T20:35:54.041Z,49.70
2018-05-06T20:38:22.219Z,49.70
2018-05-06T20:40:50.308Z,49.80
2018-05-06T20:43:18.445Z,49.80
2018-05-06T20:45:46.560Z,50.00
2018-05-06T20:48:14.708Z,49.90
2018-05-06T20:50:42.850Z,50.20
2018-05-06T20:53:11.732Z,50.60
2018-05-06T20:55:40.628Z,50.70
2018-05-06T20:58:08.766Z,50.70
2018-05-06T21:00:36.921Z,50.70
2018-05-06T21:03:05.040Z,51.20
2018-05-06T21:05:33.956Z,51.10
2018-05-06T21:08:02.094Z,51.10
2018-05-06T21:10:31.068Z,51.00
2018-05-06T21:13:01.315Z,51.00
2018-05-06T21:15:30.232Z,51.20
2018-05-06T21:17:58.343Z,51.10
2018-05-06T21:20:26.497Z,51.50
2018-05-06T21:22:54.683Z,51.40
2018-05-06T21:25:22.818Z,51.50
2018-05-06T21:27:50.964Z,51.40
2018-05-06T21:30:19.125Z,51.70
2018-05-06T21:32:48.041Z,52.90
2018-05-06T21:35:16.173Z,52.90
2018-05-06T21:37:44.331Z,52.50
2018-05-06T21:40:12.449Z,52.30
2018-05-06T21:42:40.593Z,53.10
2018-05-06T21:45:08.725Z,53.00
2018-05-06T21:47:36.864Z,53.00
2018-05-06T21:50:04.991Z,53.10
2018-05-06T21:52:33.137Z,52.80
2018-05-06T21:55:01.386Z,53.10
2018-05-06T21:57:29.546Z,53.00
2018-05-06T21:59:57.687Z,53.30
2018-05-06T22:02:25.911Z,53.60
2018-05-06T22:04:54.044Z,53.30
2018-05-06T22:07:22.989Z,53.80
2018-05-06T22:09:51.119Z,53.80
2018-05-06T22:12:19.276Z,53.90
2018-05-06T22:14:47.358Z,54.30
2018-05-06T22:17:16.264Z,54.50
2018-05-06T22:19:44.641Z,54.30
2018-05-06T22:22:12.759Z,54.60
2018-05-06T22:24:40.898Z,54.90
2018-05-06T22:27:09.042Z,55.10
2018-05-06T22:29:37.944Z,55.80
2018-05-06T22:32:06.097Z,55.80
2018-05-06T22:34:35.013Z,56.20
2018-05-06T22:37:03.178Z,56.10
2018-05-06T22:39:31.316Z,56.40
2018-05-06T22:42:00.204Z,56.80
2018-05-06T22:44:28.349Z,56.80
2018-05-06T22:46:56.485Z,57.40
2018-05-06T22:49:24.637Z,57.60
2018-05-06T22:51:53.525Z,58.20
2018-05-06T22:54:21.680Z,58.20
2018-05-06T22:56:49.812Z,58.40
2018-05-06T22:59:17.952Z,58.70
2018-05-06T23:01:46.068Z,59.10
2018-05-06T23:04:14.209Z,59.40
2018-05-06T23:06:42.335Z,59.80
2018-05-06T23:09:10.484Z,60.10
2018-05-06T23:11:38.735Z,60.30
2018-05-06T23:14:06.868Z,60.30
2018-05-06T23:16:35.756Z,61.30
2018-05-06T23:19:04.746Z,63.40
2018-05-06T23:21:32.816Z,63.40
2018-05-06T23:24:01.704Z,65.50
2018-05-06T23:26:30.669Z,65.20
2018-05-06T23:28:58.739Z,65.20
2018-05-06T23:31:26.890Z,64.30
2018-05-06T23:33:55.010Z,64.40
2018-05-06T23:36:24.676Z,68.10
2018-05-06T23:38:52.787Z,68.00
2018-05-06T23:41:21.702Z,69.00
2018-05-06T23:43:49.869Z,68.80
2018-05-06T23:46:17.984Z,70.20
2018-05-06T23:48:46.129Z,71.30
2018-05-06T23:51:15.316Z,72.70
2018-05-06T23:53:44.196Z,73.50
2018-05-06T23:56:12.346Z,73.40
2018-05-06T23:58:41.236Z,77.10
